Time;durP1;ratioP1;P1;durP2;ratioP2;P2;SDS_P1;SDS_P2;PMS_P1;PMS_P2;Temp;Humidity;BMP_temperature;BMP_pressure;BME280_temperature;BME280_humidity;BME280_pressure;Samples;Min_cycle;Max_cycle;Signal;HPM_P1;HPM_P2
2023/06/24 00:00:06;;;;;;;15.25;10.60;;;;;;;22.67;87.92;94672.59;5090881;28;20649;-44
2023/06/24 00:02:35;;;;;;;13.48;10.70;;;;;;;22.68;88.01;94677.59;5090259;28;20296;-47
2023/06/24 00:05:03;;;;;;;13.13;11.38;;;;;;;22.65;88.75;94670.19;5091425;28;20308;-46
2023/06/24 00:07:30;;;;;;;12.23;11.02;;;;;;;22.60;89.75;94670.03;5090146;28;20751;-46
2023/06/24 00:09:57;;;;;;;14.02;11.80;;;;;;;22.57;89.96;94664.44;5089995;28;20247;-45
2023/06/24 00:12:25;;;;;;;12.82;11.52;;;;;;;22.52;90.32;94665.09;5089965;28;20216;-45
2023/06/24 00:14:52;;;;;;;15.93;11.27;;;;;;;22.50;90.78;94664.50;5089880;28;20182;-44
2023/06/24 00:17:18;;;;;;;13.35;10.68;;;;;;;22.47;90.55;94668.31;5090465;28;20185;-45
2023/06/24 00:19:45;;;;;;;13.20;11.10;;;;;;;22.42;90.61;94669.97;5089975;28;20197;-45
2023/06/24 00:22:12;;;;;;;12.50;11.20;;;;;;;22.37;90.74;94665.41;5090211;28;20193;-47
2023/06/24 00:24:39;;;;;;;14.80;11.15;;;;;;;22.29;90.95;94656.03;5090283;28;20196;-43
2023/06/24 00:27:07;;;;;;;12.60;11.32;;;;;;;22.28;91.15;94667.47;5089499;28;20233;-45
2023/06/24 00:29:35;;;;;;;15.63;11.95;;;;;;;22.25;91.51;94659.25;5090077;28;20664;-53
2023/06/24 00:32:02;;;;;;;13.70;11.23;;;;;;;22.24;91.52;94668.09;5089088;28;20668;-45
2023/06/24 00:34:28;;;;;;;14.95;11.95;;;;;;;22.20;91.36;94665.09;5089664;28;20239;-46
2023/06/24 00:36:55;;;;;;;16.98;10.80;;;;;;;22.19;91.56;94666.13;5089636;28;20193;-44
2023/06/24 00:39:23;;;;;;;16.10;11.20;;;;;;;22.18;91.54;94674.91;5090216;28;20272;-44
2023/06/24 00:41:50;;;;;;;13.60;10.55;;;;;;;22.14;91.98;94671.13;5089091;28;20243;-48
2023/06/24 00:44:17;;;;;;;13.02;11.25;;;;;;;22.04;92.43;94661.16;5089744;28;20186;-45
2023/06/24 00:46:46;;;;;;;13.38;10.65;;;;;;;22.07;92.31;94662.56;5089227;28;20233;-44
2023/06/24 00:49:15;;;;;;;14.57;11.57;;;;;;;22.05;92.75;94659.34;5089863;28;20185;-44
2023/06/24 00:51:50;;;;;;;14.90;11.77;;;;;;;22.02;92.57;94654.53;5090503;28;20186;-44
2023/06/24 00:54:17;;;;;;;12.55;10.75;;;;;;;21.99;92.55;94658.38;5089920;28;20540;-44
2023/06/24 00:56:44;;;;;;;12.35;11.05;;;;;;;21.96;92.68;94647.59;5089414;28;20379;-45
2023/06/24 00:59:15;;;;;;;16.65;11.55;;;;;;;21.89;93.50;94645.03;5089948;28;20186;-46
2023/06/24 01:01:44;;;;;;;13.63;10.98;;;;;;;21.74;93.33;94623.66;5088666;28;20197;-46
2023/06/24 01:04:12;;;;;;;16.52;12.35;;;;;;;21.88;93.14;94651.22;5088039;28;20645;-46
2023/06/24 01:06:43;;;;;;;12.60;11.20;;;;;;;21.85;93.52;94646.44;5089191;28;20221;-46
2023/06/24 01:09:11;;;;;;;11.60;10.40;;;;;;;21.84;93.76;94647.44;5089672;28;20186;-45
2023/06/24 01:11:38;;;;;;;12.38;11.20;;;;;;;21.81;94.12;94645.28;5089208;28;20246;-45
2023/06/24 01:14:05;;;;;;;12.70;11.38;;;;;;;21.80;94.07;94646.25;5089319;28;20592;-46
2023/06/24 01:16:38;;;;;;;19.45;12.13;;;;;;;21.78;94.42;94646.47;5089427;28;20190;-44
2023/06/24 01:19:23;;;;;;;13.40;12.00;;;;;;;21.76;94.36;94639.88;5089332;28;20239;-46
2023/06/24 01:22:06;;;;;;;17.25;12.43;;;;;;;21.71;95.05;94640.50;5089919;28;20681;-46
2023/06/24 01:24:56;;;;;;;15.18;11.82;;;;;;;21.68;94.78;94635.72;5089623;28;20274;-46
2023/06/24 01:27:44;;;;;;;13.13;11.40;;;;;;;21.66;95.10;94640.31;5088937;28;20715;-46
2023/06/24 01:30:42;;;;;;;12.38;11.07;;;;;;;21.64;95.35;94642.34;5089306;28;20190;-46
2023/06/24 01:33:14;;;;;;;14.18;11.48;;;;;;;21.64;95.26;94651.97;5089192;28;20222;-44
2023/06/24 01:35:43;;;;;;;15.40;11.98;;;;;;;21.63;95.57;94656.38;5089225;28;20190;-46
2023/06/24 01:38:26;;;;;;;13.20;11.65;;;;;;;21.63;96.06;94658.97;5089563;28;20182;-46
2023/06/24 01:40:55;;;;;;;13.45;11.93;;;;;;;21.52;96.13;94659.59;5088192;28;20193;-44
2023/06/24 01:43:25;;;;;;;14.48;12.98;;;;;;;21.47;96.14;94660.22;5089188;28;20189;-46
2023/06/24 01:45:53;;;;;;;17.85;11.70;;;;;;;21.49;96.28;94660.81;5089768;28;20194;-45
2023/06/24 01:48:26;;;;;;;11.98;10.70;;;;;;;21.51;96.26;94664.00;5089614;28;20213;-45
2023/06/24 01:50:59;;;;;;;13.63;11.68;;;;;;;21.55;96.09;94674.81;5089405;28;20739;-45
2023/06/24 01:53:28;;;;;;;14.35;12.10;;;;;;;21.46;96.24;94686.44;5090459;28;20193;-46
2023/06/24 01:55:57;;;;;;;16.08;12.30;;;;;;;21.35;96.35;94672.25;5092774;28;20276;-44
2023/06/24 01:58:24;;;;;;;11.93;10.57;;;;;;;21.31;96.42;94673.66;5092681;28;20208;-44
2023/06/24 02:00:53;;;;;;;13.15;11.45;;;;;;;21.29;96.48;94670.47;5092656;28;20185;-45
2023/06/24 02:03:24;;;;;;;14.73;11.82;;;;;;;21.28;96.70;94679.25;5093698;28;20182;-45
2023/06/24 02:05:52;;;;;;;13.55;12.25;;;;;;;21.27;96.60;94685.47;5092534;28;20608;-45
2023/06/24 02:08:22;;;;;;;13.38;11.25;;;;;;;21.24;96.92;94683.25;5092499;28;20225;-45
2023/06/24 02:10:51;;;;;;;17.65;12.10;;;;;;;21.23;96.88;94689.47;5091148;28;20182;-45
2023/06/24 02:13:19;;;;;;;14.52;12.00;;;;;;;21.21;96.56;94687.09;5092596;28;20212;-44
2023/06/24 02:15:48;;;;;;;12.98;11.57;;;;;;;21.21;96.59;94684.47;5092454;28;20193;-46
2023/06/24 02:18:17;;;;;;;13.70;12.27;;;;;;;21.19;97.01;94680.47;5092262;28;20190;-46
2023/06/24 02:20:49;;;;;;;16.50;11.52;;;;;;;21.19;96.88;94683.88;5092823;28;20182;-45
2023/06/24 02:23:16;;;;;;;13.60;11.90;;;;;;;21.17;96.88;94683.28;5093597;28;20182;-45
2023/06/24 02:25:43;;;;;;;15.00;11.55;;;;;;;21.17;96.91;94701.50;5092001;28;20233;-46
2023/06/24 02:28:11;;;;;;;17.02;12.13;;;;;;;21.17;96.80;94701.50;5091806;28;20604;-45
2023/06/24 02:30:39;;;;;;;12.60;11.27;;;;;;;21.16;97.36;94706.91;5091734;28;20256;-45
2023/06/24 02:33:06;;;;;;;14.38;10.98;;;;;;;21.21;97.07;94713.09;5092051;28;20209;-46
2023/06/24 02:35:33;;;;;;;15.13;11.82;;;;;;;21.20;96.79;94719.31;5091952;28;20208;-45
2023/06/24 02:38:03;;;;;;;16.48;12.55;;;;;;;21.20;96.58;94719.31;5091790;28;20204;-44
2023/06/24 02:40:30;;;;;;;17.33;12.50;;;;;;;21.21;96.78;94720.91;5092175;28;20186;-45
2023/06/24 02:42:57;;;;;;;14.57;11.88;;;;;;;21.20;96.72;94721.91;5091993;28;20284;-44
2023/06/24 02:45:25;;;;;;;16.13;12.43;;;;;;;21.19;97.02;94725.47;5091577;28;20641;-44
2023/06/24 02:47:53;;;;;;;16.17;11.98;;;;;;;21.17;96.94;94729.31;5092111;28;20221;-46
2023/06/24 02:50:21;;;;;;;14.80;10.93;;;;;;;21.09;96.94;94716.50;5091649;28;20217;-47
2023/06/24 02:52:49;;;;;;;13.60;12.20;;;;;;;21.13;97.12;94726.31;5091791;28;20239;-47
2023/06/24 02:55:17;;;;;;;15.07;11.90;;;;;;;21.13;97.18;94731.50;5091750;28;20684;-46
2023/06/24 02:57:45;;;;;;;17.33;12.73;;;;;;;21.14;97.27;94730.50;5091356;28;20189;-45
2023/06/24 03:00:14;;;;;;;16.48;12.07;;;;;;;21.12;97.27;94732.50;5091356;28;20197;-46
2023/06/24 03:02:42;;;;;;;15.27;12.50;;;;;;;21.17;97.01;94734.50;5071488;28;20232;-45
2023/06/24 03:05:11;;;;;;;16.85;13.60;;;;;;;21.24;97.20;94745.69;5070526;28;20190;-45
2023/06/24 03:07:40;;;;;;;18.42;13.00;;;;;;;21.21;97.12;94735.72;5070948;28;20681;-47
2023/06/24 03:10:10;;;;;;;13.40;12.05;;;;;;;21.21;97.20;94733.91;5078234;28;20277;-47
2023/06/24 03:12:38;;;;;;;19.02;13.15;;;;;;;21.23;97.19;94728.50;5091087;28;20276;-45
2023/06/24 03:15:06;;;;;;;17.55;13.75;;;;;;;21.26;97.01;94730.69;5090902;28;20193;-45
2023/06/24 03:17:33;;;;;;;16.55;14.48;;;;;;;21.30;96.77;94734.50;5091964;28;20200;-46
2023/06/24 03:20:00;;;;;;;15.68;14.07;;;;;;;21.38;95.89;94739.50;5090953;28;20193;-44
2023/06/24 03:22:27;;;;;;;14.60;13.20;;;;;;;21.43;96.08;94734.50;5091404;28;20188;-45
2023/06/24 03:24:54;;;;;;;14.23;12.77;;;;;;;21.52;95.74;94745.47;5091202;28;20193;-44
2023/06/24 03:27:20;;;;;;;19.92;12.80;;;;;;;21.58;95.44;94749.84;5090482;28;20233;-47
2023/06/24 03:29:48;;;;;;;13.77;12.35;;;;;;;21.66;95.19;94751.44;5090837;28;20185;-46
2023/06/24 03:32:15;;;;;;;15.90;12.68;;;;;;;21.71;95.37;94759.44;5090395;28;20194;-45
2023/06/24 03:34:42;;;;;;;16.27;12.65;;;;;;;21.78;94.99;94768.03;5090549;28;20198;-45
2023/06/24 03:37:09;;;;;;;16.92;12.20;;;;;;;21.83;94.78;94768.22;5091160;28;20186;-46
2023/06/24 03:39:36;;;;;;;15.82;12.63;;;;;;;21.86;94.76;94760.00;5090587;28;20197;-46
2023/06/24 03:42:03;;;;;;;13.75;11.57;;;;;;;21.92;94.71;94764.38;5091013;28;20239;-45
2023/06/24 03:44:29;;;;;;;14.85;12.60;;;;;;;22.04;94.47;94769.75;5090551;28;20194;-44
2023/06/24 03:46:57;;;;;;;14.88;13.23;;;;;;;22.12;93.79;94774.75;5090391;28;20186;-46
2023/06/24 03:49:24;;;;;;;17.92;12.43;;;;;;;22.20;93.57;94782.34;5090674;28;20235;-46
2023/06/24 03:51:51;;;;;;;15.18;13.50;;;;;;;22.32;93.04;94779.06;5090825;28;20194;-45
2023/06/24 03:54:18;;;;;;;16.58;12.63;;;;;;;22.21;92.69;94747.47;5091417;28;20201;-44
2023/06/24 03:56:45;;;;;;;15.45;12.02;;;;;;;22.50;92.66;94774.78;5090756;28;20243;-44
2023/06/24 03:59:12;;;;;;;14.10;12.60;;;;;;;22.56;92.34;94767.13;5090336;28;20193;-45
2023/06/24 04:01:39;;;;;;;15.52;11.48;;;;;;;22.65;91.69;94771.88;5092197;28;20300;-45
2023/06/24 04:04:07;;;;;;;14.45;12.95;;;;;;;22.77;90.92;94774.59;5090365;28;20638;-45
2023/06/24 04:06:34;;;;;;;14.38;11.80;;;;;;;22.84;90.61;94775.38;5090434;28;20566;-44
2023/06/24 04:09:02;;;;;;;13.57;11.88;;;;;;;22.97;90.47;94784.91;5090075;28;20221;-47
2023/06/24 04:11:29;;;;;;;17.90;12.25;;;;;;;23.09;89.95;94785.03;5090300;28;20224;-43
2023/06/24 04:13:55;;;;;;;14.57;13.10;;;;;;;23.10;88.25;94774.41;5090076;28;20189;-45
2023/06/24 04:16:22;;;;;;;13.38;12.10;;;;;;;22.75;87.32;94703.59;5089000;28;20246;-45
2023/06/24 04:18:49;;;;;;;13.98;12.27;;;;;;;23.23;87.37;94770.88;5089975;28;20204;-45
2023/06/24 04:21:17;;;;;;;13.65;12.00;;;;;;;23.29;86.79;94762.97;5089681;28;20295;-45
2023/06/24 04:23:44;;;;;;;15.40;12.38;;;;;;;23.40;86.31;94764.09;5090371;28;20197;-47
2023/06/24 04:26:11;;;;;;;13.43;12.02;;;;;;;23.53;85.57;94771.81;5089655;28;20299;-46
2023/06/24 04:28:37;;;;;;;15.88;12.80;;;;;;;23.18;84.86;94693.22;5089998;28;20298;-47
2023/06/24 04:31:05;;;;;;;15.27;12.80;;;;;;;23.72;83.95;94756.16;5089784;28;20231;-44
2023/06/24 04:33:32;;;;;;;14.70;13.20;;;;;;;23.79;83.99;94743.81;5090192;28;20211;-45
2023/06/24 04:35:59;;;;;;;14.95;13.30;;;;;;;23.79;83.23;94743.81;5089438;28;20212;-45
2023/06/24 04:38:27;;;;;;;15.82;12.88;;;;;;;23.99;82.42;94757.44;5090146;28;20292;-45
2023/06/24 04:40:54;;;;;;;14.35;12.63;;;;;;;24.18;82.05;94768.69;5089634;28;20201;-45
2023/06/24 04:43:21;;;;;;;17.05;12.65;;;;;;;24.20;81.90;94771.88;5089575;28;20337;-45
2023/06/24 04:45:47;;;;;;;14.82;13.30;;;;;;;24.23;80.99;94765.44;5091041;28;20231;-50
2023/06/24 04:48:14;;;;;;;17.15;12.65;;;;;;;24.29;80.59;94778.41;5091574;28;20236;-46
2023/06/24 04:50:41;;;;;;;14.13;12.77;;;;;;;24.32;79.70;94773.75;5090413;28;20213;-52
2023/06/24 04:53:08;;;;;;;17.33;12.13;;;;;;;24.37;79.96;94782.56;5089615;28;20647;-48
2023/06/24 04:55:36;;;;;;;15.23;12.30;;;;;;;24.43;79.56;94779.03;5090135;28;20189;-44
2023/06/24 04:58:03;;;;;;;13.00;11.70;;;;;;;24.18;79.55;94734.72;5089348;28;20200;-47
2023/06/24 05:00:30;;;;;;;12.80;11.50;;;;;;;24.58;79.63;94778.66;5089287;28;20246;-46
2023/06/24 05:02:57;;;;;;;13.85;12.45;;;;;;;24.71;79.80;94783.69;5089385;28;20182;-44
2023/06/24 05:05:24;;;;;;;13.18;11.43;;;;;;;24.81;78.39;94779.75;5089871;28;20200;-45
2023/06/24 05:07:51;;;;;;;14.40;12.45;;;;;;;24.85;78.35;94780.91;5089181;28;20209;-44
2023/06/24 05:10:18;;;;;;;12.80;11.57;;;;;;;24.78;78.04;94754.81;5089326;28;20185;-45
2023/06/24 05:12:47;;;;;;;13.73;11.27;;;;;;;25.12;76.80;94778.69;5089430;28;20300;-45
2023/06/24 05:15:14;;;;;;;16.75;11.85;;;;;;;25.32;76.54;94778.38;5088887;28;20182;-45
2023/06/24 05:17:41;;;;;;;14.18;12.38;;;;;;;25.62;76.14;94773.03;5089187;28;20197;-44
2023/06/24 05:20:09;;;;;;;18.48;12.55;;;;;;;25.99;74.49;94766.50;5088593;28;20678;-45
2023/06/24 05:22:36;;;;;;;14.40;12.90;;;;;;;26.32;72.54;94765.03;5088751;28;20738;-47
2023/06/24 05:25:03;;;;;;;13.35;11.95;;;;;;;26.61;70.98;94765.06;5090340;28;20217;-45
2023/06/24 05:27:30;;;;;;;14.25;12.75;;;;;;;26.73;70.09;94760.56;5089528;28;20226;-46
2023/06/24 05:29:58;;;;;;;14.82;12.93;;;;;;;26.95;69.28;94755.41;5092462;28;20197;-48
2023/06/24 05:32:25;;;;;;;18.27;12.63;;;;;;;27.13;68.29;94752.56;5093667;28;20212;-46
2023/06/24 05:34:52;;;;;;;13.27;11.93;;;;;;;27.34;68.54;94755.50;5093101;28;20190;-45
2023/06/24 05:37:19;;;;;;;11.60;10.35;;;;;;;27.83;67.24;94771.44;5093222;28;20194;-45
2023/06/24 05:39:46;;;;;;;13.05;11.75;;;;;;;28.30;65.30;94770.94;5092745;28;20190;-46
2023/06/24 05:42:13;;;;;;;18.25;10.88;;;;;;;28.67;63.94;94776.34;5093165;28;20687;-46
2023/06/24 05:44:39;;;;;;;15.27;11.05;;;;;;;29.04;63.68;94775.66;5092745;28;20178;-46
2023/06/24 05:47:08;;;;;;;16.50;11.95;;;;;;;29.38;62.42;94776.97;5092220;28;20641;-47
2023/06/24 05:49:35;;;;;;;12.98;10.55;;;;;;;29.66;62.55;94764.53;5093114;28;20213;-45
2023/06/24 05:52:01;;;;;;;16.85;12.20;;;;;;;29.93;60.79;94769.69;5093554;28;20189;-47
2023/06/24 05:54:28;;;;;;;15.40;11.10;;;;;;;29.97;59.29;94762.84;5092491;28;20196;-46
2023/06/24 05:56:55;;;;;;;16.10;10.60;;;;;;;30.12;59.23;94756.84;5093454;28;20198;-45
2023/06/24 05:59:22;;;;;;;14.85;11.20;;;;;;;30.34;57.77;94760.09;5092563;28;20185;-46
2023/06/24 06:01:49;;;;;;;16.80;11.40;;;;;;;30.47;57.29;94761.44;5092594;28;20609;-45
2023/06/24 06:04:17;;;;;;;12.30;11.10;;;;;;;30.55;57.13;94758.31;5092065;28;20198;-46
2023/06/24 06:06:44;;;;;;;12.48;11.18;;;;;;;30.63;57.32;94760.44;5092835;28;20190;-45
2023/06/24 06:09:11;;;;;;;16.20;10.48;;;;;;;30.88;56.94;94758.91;5092946;28;20228;-45
2023/06/24 06:11:38;;;;;;;12.82;10.98;;;;;;;31.06;56.81;94752.31;5092655;28;20198;-47
2023/06/24 06:14:05;;;;;;;10.43;9.48;;;;;;;31.27;55.21;94753.09;5092444;28;20205;-45
2023/06/24 06:16:32;;;;;;;10.05;9.00;;;;;;;31.43;55.28;94752.84;5092864;28;20276;-47
2023/06/24 06:18:59;;;;;;;10.85;9.85;;;;;;;31.61;53.49;94756.00;5092753;28;20219;-45
2023/06/24 06:21:27;;;;;;;11.27;10.10;;;;;;;31.62;54.48;94758.34;5092591;28;20181;-45
2023/06/24 06:23:54;;;;;;;13.98;9.63;;;;;;;31.80;54.10;94757.00;5092556;28;20654;-45
2023/06/24 06:26:21;;;;;;;12.90;9.68;;;;;;;31.87;52.60;94756.75;5091192;28;20222;-44
2023/06/24 06:28:48;;;;;;;10.88;9.77;;;;;;;31.95;52.61;94756.16;5091872;28;20751;-46
2023/06/24 06:31:15;;;;;;;11.13;9.93;;;;;;;32.05;51.27;94761.44;5094057;28;20285;-47
2023/06/24 06:33:41;;;;;;;11.05;10.05;;;;;;;32.14;51.09;94769.59;5093586;28;20182;-46
2023/06/24 06:36:08;;;;;;;11.55;9.63;;;;;;;32.18;51.48;94770.66;5092388;28;20197;-46
2023/06/24 06:38:37;;;;;;;12.13;9.90;;;;;;;32.09;51.36;94764.34;5092236;28;20204;-46
2023/06/24 06:41:03;;;;;;;10.30;8.98;;;;;;;32.30;51.14;94775.59;5091487;28;20193;-50
2023/06/24 06:43:30;;;;;;;12.00;9.88;;;;;;;32.51;50.38;94777.13;5092168;28;20190;-46
2023/06/24 06:45:57;;;;;;;10.57;9.52;;;;;;;32.68;49.72;94768.81;5092448;28;20199;-47
2023/06/24 06:48:25;;;;;;;15.57;9.82;;;;;;;32.82;49.79;94780.38;5091916;28;20710;-47
2023/06/24 06:50:53;;;;;;;13.45;9.20;;;;;;;33.08;49.31;94780.25;5092393;28;20304;-47
2023/06/24 06:53:19;;;;;;;11.63;9.80;;;;;;;33.18;48.58;94778.28;5091743;28;20227;-47
2023/06/24 06:55:48;;;;;;;13.10;9.20;;;;;;;33.22;48.30;94779.31;5092279;28;20200;-47
2023/06/24 06:58:16;;;;;;;14.95;10.38;;;;;;;33.36;48.11;94773.38;5091713;28;20197;-45
2023/06/24 07:00:43;;;;;;;13.15;9.98;;;;;;;33.32;47.87;94775.78;5092362;28;20569;-46
2023/06/24 07:03:10;;;;;;;11.30;10.15;;;;;;;33.15;48.08;94772.75;5090331;28;20186;-48
2023/06/24 07:05:37;;;;;;;10.93;9.68;;;;;;;33.17;48.11;94771.41;5091824;28;20238;-46
2023/06/24 07:08:06;;;;;;;12.50;9.93;;;;;;;33.34;47.59;94776.31;5091712;28;20209;-46
2023/06/24 07:10:33;;;;;;;11.98;10.63;;;;;;;33.18;47.49;94786.25;5091856;28;20219;-45
2023/06/24 07:13:02;;;;;;;11.45;10.25;;;;;;;32.91;47.93;94773.47;5091691;28;20548;-47
2023/06/24 07:15:29;;;;;;;11.32;10.18;;;;;;;32.95;47.54;94786.97;5091178;28;20637;-46
2023/06/24 07:17:55;;;;;;;12.70;9.48;;;;;;;32.80;47.54;94773.78;5091383;28;20186;-46
2023/06/24 07:20:23;;;;;;;14.52;10.40;;;;;;;32.70;47.56;94778.06;5091099;28;20190;-47
2023/06/24 07:22:50;;;;;;;12.05;9.57;;;;;;;32.80;48.24;94773.78;5091902;28;20193;-47
2023/06/24 07:25:17;;;;;;;13.30;10.65;;;;;;;32.99;47.64;94768.63;5090877;28;20190;-48
2023/06/24 07:27:43;;;;;;;12.52;10.38;;;;;;;32.98;48.60;94778.44;5091042;28;20225;-47
2023/06/24 07:30:12;;;;;;;11.35;9.30;;;;;;;33.13;48.58;94767.72;5091079;28;20210;-46
2023/06/24 07:32:39;;;;;;;11.93;9.60;;;;;;;33.39;47.96;94773.59;5091477;28;20258;-47
2023/06/24 07:35:06;;;;;;;12.82;10.10;;;;;;;33.60;47.47;94765.50;5090723;28;20197;-45
2023/06/24 07:37:33;;;;;;;14.52;10.60;;;;;;;33.75;46.96;94767.19;5091211;28;20186;-49
2023/06/24 07:40:00;;;;;;;10.68;9.77;;;;;;;33.80;47.40;94767.13;5091016;28;20193;-45
2023/06/24 07:42:27;;;;;;;14.60;9.80;;;;;;;33.89;46.08;94765.44;5090669;28;20182;-46
2023/06/24 07:44:53;;;;;;;16.83;10.00;;;;;;;34.03;45.91;94765.59;5090485;28;20190;-45
2023/06/24 07:47:22;;;;;;;11.15;9.70;;;;;;;34.13;45.72;94762.81;5090787;28;20204;-47
2023/06/24 07:49:49;;;;;;;11.00;9.63;;;;;;;34.18;45.13;94758.22;5090871;28;20224;-46
2023/06/24 07:52:15;;;;;;;10.98;9.95;;;;;;;34.30;45.73;94762.34;5090490;28;20431;-47
2023/06/24 07:54:42;;;;;;;11.00;9.85;;;;;;;34.33;44.73;94764.44;5090744;28;20197;-47
2023/06/24 07:57:09;;;;;;;11.93;10.65;;;;;;;34.19;44.52;94767.75;5093195;28;20209;-45
2023/06/24 07:59:36;;;;;;;11.07;9.52;;;;;;;33.88;45.46;94775.25;5093362;28;20544;-46
2023/06/24 08:02:03;;;;;;;13.05;10.52;;;;;;;33.78;45.87;94779.91;5090669;28;20194;-46
2023/06/24 08:04:31;;;;;;;10.95;9.82;;;;;;;33.81;45.65;94774.00;5090619;28;20194;-46
2023/06/24 08:06:59;;;;;;;14.85;10.35;;;;;;;33.92;45.77;94780.78;5089338;28;20221;-47
2023/06/24 08:09:26;;;;;;;14.32;9.48;;;;;;;33.70;46.01;94776.78;5090201;28;20270;-46
2023/06/24 08:11:52;;;;;;;10.10;9.05;;;;;;;33.69;46.50;94775.19;5090097;28;20186;-47
2023/06/24 08:14:19;;;;;;;9.88;8.98;;;;;;;33.94;46.38;94776.00;5090274;28;20568;-45
2023/06/24 08:16:46;;;;;;;11.60;10.55;;;;;;;33.98;46.07;94776.25;5090482;28;20653;-46
2023/06/24 08:19:13;;;;;;;11.77;10.10;;;;;;;33.97;45.89;94767.50;5090252;28;20645;-47
2023/06/24 08:21:41;;;;;;;12.60;9.75;;;;;;;33.94;45.77;94774.16;5090324;28;20309;-45
2023/06/24 08:24:08;;;;;;;12.05;10.00;;;;;;;33.74;46.33;94769.06;5090381;28;20197;-46
2023/06/24 08:26:35;;;;;;;13.02;10.55;;;;;;;33.61;47.02;94765.19;5090348;28;20630;-47
2023/06/24 08:29:02;;;;;;;11.20;10.10;;;;;;;33.70;46.72;94763.50;5089779;28;20283;-46
2023/06/24 08:31:28;;;;;;;12.35;10.25;;;;;;;33.68;46.31;94760.38;5090016;28;20190;-46
2023/06/24 08:33:59;;;;;;;16.40;11.13;;;;;;;33.54;47.48;94759.44;5090169;28;20182;-46
2023/06/24 08:36:29;;;;;;;13.52;11.43;;;;;;;33.45;47.48;94764.56;5090253;28;20243;-46
2023/06/24 08:38:57;;;;;;;11.57;10.38;;;;;;;33.39;47.53;94762.22;5089673;28;20204;-47
2023/06/24 08:41:25;;;;;;;11.68;10.30;;;;;;;33.14;48.00;94736.72;5089944;28;20197;-47
2023/06/24 08:43:53;;;;;;;11.52;10.43;;;;;;;33.21;48.74;94748.59;5089917;28;20221;-46
2023/06/24 08:46:21;;;;;;;11.27;10.18;;;;;;;33.29;48.50;94736.59;5090106;28;20186;-50
2023/06/24 08:48:50;;;;;;;10.77;9.73;;;;;;;33.52;48.10;94743.03;5089599;28;20229;-45
2023/06/24 08:51:21;;;;;;;14.13;10.55;;;;;;;33.66;47.40;94741.28;5090109;28;20209;-45
2023/06/24 08:53:49;;;;;;;13.38;10.77;;;;;;;33.70;46.63;94750.25;5089687;28;20294;-45
2023/06/24 08:56:18;;;;;;;11.45;10.00;;;;;;;33.71;47.22;94737.78;5090053;28;20185;-47
2023/06/24 08:58:45;;;;;;;12.63;10.27;;;;;;;33.68;47.40;94739.16;5089697;28;20269;-45
2023/06/24 09:01:12;;;;;;;10.90;9.88;;;;;;;33.59;47.37;94743.47;5090003;28;20192;-44
2023/06/24 09:03:39;;;;;;;11.40;10.23;;;;;;;33.64;47.29;94743.44;5091515;28;20262;-45
2023/06/24 09:06:06;;;;;;;11.63;10.43;;;;;;;33.60;47.32;94744.28;5093841;28;20600;-44
2023/06/24 09:08:35;;;;;;;12.02;10.43;;;;;;;33.48;47.88;94736.69;5094026;28;20186;-47
2023/06/24 09:11:02;;;;;;;12.15;10.45;;;;;;;33.43;48.74;94732.19;5094801;28;20193;-47
2023/06/24 09:13:36;;;;;;;11.27;10.13;;;;;;;33.43;48.74;94736.72;5093588;28;20198;-47
2023/06/24 09:16:13;;;;;;;11.38;9.63;;;;;;;33.40;48.33;94734.63;5093918;28;20258;-46
2023/06/24 09:18:39;;;;;;;13.18;10.30;;;;;;;33.49;48.12;94735.63;5093705;28;20565;-47
2023/06/24 09:21:06;;;;;;;12.38;10.82;;;;;;;33.64;48.25;94738.13;5093661;28;20236;-47
2023/06/24 09:23:38;;;;;;;11.88;9.35;;;;;;;33.61;48.22;94741.31;5093920;28;20270;-46
2023/06/24 09:26:05;;;;;;;13.32;10.27;;;;;;;33.71;47.94;94738.56;5093573;28;20347;-46
2023/06/24 09:28:32;;;;;;;12.52;10.63;;;;;;;33.79;47.87;94733.72;5093404;28;20190;-45
2023/06/24 09:31:10;;;;;;;11.45;9.93;;;;;;;33.82;47.26;94735.81;5093158;28;20189;-46
2023/06/24 09:33:37;;;;;;;15.85;10.43;;;;;;;33.77;47.01;94741.97;5093329;28;20255;-47
2023/06/24 09:36:05;;;;;;;11.20;9.90;;;;;;;33.69;47.35;94743.38;5093266;28;20186;-47
2023/06/24 09:38:36;;;;;;;11.40;9.70;;;;;;;33.49;47.21;94709.09;5093152;28;20213;-44
2023/06/24 09:41:04;;;;;;;11.00;9.85;;;;;;;33.59;47.35;94742.66;5093350;28;20645;-45
2023/06/24 09:43:31;;;;;;;11.90;9.40;;;;;;;33.64;47.02;94746.09;5093303;28;20185;-48
2023/06/24 09:45:58;;;;;;;13.10;10.65;;;;;;;33.56;47.14;94744.03;5098823;28;20299;-45
2023/06/24 09:48:26;;;;;;;11.02;8.88;;;;;;;33.58;47.03;94735.78;5098049;28;20225;-46
2023/06/24 09:50:55;;;;;;;11.75;9.77;;;;;;;33.54;47.11;94727.59;5095716;28;20213;-46
2023/06/24 09:53:22;;;;;;;12.85;9.45;;;;;;;33.56;46.82;94737.94;5093031;28;20186;-45
2023/06/24 09:55:50;;;;;;;11.20;10.02;;;;;;;33.57;46.48;94728.91;5096745;28;20197;-46
2023/06/24 09:58:18;;;;;;;11.20;10.07;;;;;;;33.29;47.20;94717.22;5095375;28;20212;-45
2023/06/24 10:00:45;;;;;;;14.02;9.93;;;;;;;33.13;47.73;94732.50;5096651;28;20189;-47
2023/06/24 10:03:13;;;;;;;11.38;10.38;;;;;;;33.14;48.11;94718.94;5095466;28;20186;-46
2023/06/24 10:05:43;;;;;;;10.90;9.82;;;;;;;33.01;48.06;94682.50;5094117;28;20720;-47
2023/06/24 10:08:11;;;;;;;11.73;9.88;;;;;;;33.21;48.15;94705.38;5092997;28;20198;-46
2023/06/24 10:10:37;;;;;;;15.13;9.73;;;;;;;33.10;48.36;94714.47;5092651;28;20270;-47
2023/06/24 10:13:06;;;;;;;14.10;9.65;;;;;;;32.99;47.92;94703.19;5092812;28;20200;-46
2023/06/24 10:15:33;;;;;;;11.25;9.95;;;;;;;32.89;48.31;94708.53;5090961;28;20193;-45
2023/06/24 10:18:02;;;;;;;12.80;9.02;;;;;;;32.67;48.42;94693.84;5093856;28;20277;-46
2023/06/24 10:20:29;;;;;;;14.68;8.73;;;;;;;32.72;47.72;94699.09;5094916;28;20193;-46
2023/06/24 10:22:59;;;;;;;12.52;9.35;;;;;;;32.77;47.52;94692.19;5093761;28;20714;-45
2023/06/24 10:25:36;;;;;;;9.73;8.82;;;;;;;32.62;48.16;94678.00;5092772;28;20197;-46
2023/06/24 10:28:03;;;;;;;9.65;8.38;;;;;;;32.58;48.33;94676.97;5092485;28;20193;-48
2023/06/24 10:30:31;;;;;;;10.32;8.73;;;;;;;32.62;48.04;94687.81;5092198;28;20251;-45
2023/06/24 10:32:58;;;;;;;13.40;8.55;;;;;;;32.59;47.08;94683.06;5092625;28;20272;-47
2023/06/24 10:35:29;;;;;;;13.00;8.23;;;;;;;32.62;46.13;94680.66;5092515;28;20186;-45
2023/06/24 10:37:59;;;;;;;9.95;8.25;;;;;;;32.51;46.58;94670.41;5092138;28;20358;-46
2023/06/24 10:40:39;;;;;;;11.52;8.35;;;;;;;32.51;47.39;94676.50;5092193;28;20189;-45
2023/06/24 10:43:27;;;;;;;13.90;8.88;;;;;;;32.32;46.71;94644.56;5091719;28;20189;-46
2023/06/24 10:45:54;;;;;;;10.18;8.70;;;;;;;32.49;47.48;94654.81;5091735;28;20189;-46
2023/06/24 10:48:21;;;;;;;11.43;8.45;;;;;;;32.57;46.87;94642.84;5092331;28;20262;-46
2023/06/24 10:50:49;;;;;;;14.02;8.18;;;;;;;32.61;47.29;94634.06;5091679;28;20364;-47
2023/06/24 10:53:19;;;;;;;8.63;7.68;;;;;;;32.67;46.89;94632.94;5092051;28;20667;-46
2023/06/24 10:55:47;;;;;;;9.38;8.43;;;;;;;32.63;47.16;94633.78;5091730;28;20185;-46
2023/06/24 10:58:15;;;;;;;9.13;8.27;;;;;;;32.58;47.49;94628.53;5091673;28;20611;-45
2023/06/24 11:00:45;;;;;;;12.00;7.88;;;;;;;32.52;47.42;94637.59;5091640;28;20239;-46
2023/06/24 11:03:15;;;;;;;8.27;7.47;;;;;;;32.52;45.69;94624.34;5091681;28;20566;-47
2023/06/24 11:05:42;;;;;;;11.88;6.80;;;;;;;32.65;45.50;94619.19;5090206;28;20212;-46
2023/06/24 11:08:10;;;;;;;8.10;7.30;;;;;;;32.69;46.39;94627.38;5091437;28;20526;-46
2023/06/24 11:10:45;;;;;;;8.88;8.07;;;;;;;32.61;46.04;94620.03;5091517;28;20309;-47
2023/06/24 11:13:12;;;;;;;9.73;7.25;;;;;;;32.71;46.03;94623.38;5091386;28;20297;-45
2023/06/24 11:15:40;;;;;;;8.57;7.43;;;;;;;32.81;45.48;94627.78;5091642;28;20194;-46
2023/06/24 11:18:10;;;;;;;8.82;7.10;;;;;;;32.88;43.80;94638.84;5091157;28;20193;-46
2023/06/24 11:20:37;;;;;;;8.30;6.97;;;;;;;32.84;44.52;94643.13;5091064;28;20660;-45
2023/06/24 11:23:07;;;;;;;10.18;7.65;;;;;;;32.72;45.10;94626.81;5091227;28;20177;-45